Buoy 46562

sailwx.info

Track history (hours):
 
Tides and Currents Weather Stations Pressure Air Temp Water Temp Dewpoint Dewpoint Depression Visibility Wind Speed Wind Dir Waves Ship Positions

Drifting buoy 46562

Last reported at 2015-May-22 09:00 UTC. Time now 2015-May-22 11:35 UTC.
Position N 42°56' W 126°09'.

Water temperature 13.8 ° C

Date/timePositionNaut miles runAvg speedWind from/ knotsBaromVisibWave heightAir tempDewpointWater temp
2015-May-22 09:00N 42°56' W 126°09'1 0.3 13.8
2015-May-22 05:00N 42°57' W 126°08'0 0.3 13.8
2015-May-22 04:00N 42°57' W 126°08'1 1.2 13.9
2015-May-22 03:00N 42°58' W 126°07'0 0.0 13.9
2015-May-22 02:00N 42°58' W 126°07'0 0.2 13.9
2015-May-22 00:00N 42°58' W 126°08'2 0.4 13.9
2015-May-21 18:00N 42°59' W 126°05'1 0.2 13.9
2015-May-21 14:00N 43°00' W 126°05'1 0.2 13.9
2015-May-21 06:00N 43°00' W 126°03'1 0.4 14.0
2015-May-21 04:00N 43°01' W 126°02'1 0.3 14.0
2015-May-21 02:00N 43°01' W 126°02'1 0.3 14.0
2015-May-21 00:00N 43°02' W 126°02'0 0.2 14.0
2015-May-20 23:00N 43°02' W 126°02'1 0.4 14.1
2015-May-20 20:00N 43°01' W 126°00'2 0.4 14.1
2015-May-20 16:00N 43°03' W 125°59'0 0.2 14.1
2015-May-20 14:00N 43°03' W 125°59'1 0.5 14.1
2015-May-20 13:00N 43°03' W 125°60'0 0.0 14.1
2015-May-20 10:00N 43°03' W 125°59'2 0.3 14.1
2015-May-20 04:00N 43°05' W 125°57'1 0.7 14.1
2015-May-20 03:00N 43°05' W 125°57'1 0.5 14.2
2015-May-20 02:00N 43°05' W 125°57'2 0.2 14.2
2015-May-19 18:00N 43°06' W 125°55'2 0.4 13.8
2015-May-19 13:00N 43°08' W 125°55'0 0.2 13.8
2015-May-19 11:00N 43°08' W 125°55'2 1.7 13.8
2015-May-19 10:00N 43°08' W 125°53'2 1.7 13.8
2015-May-19 09:00N 43°08' W 125°55'2 0.5 13.8
2015-May-19 06:00N 43°08' W 125°53'1 0.3 13.8
2015-May-19 04:00N 43°09' W 125°52'1 0.6 13.8
2015-May-19 03:00N 43°09' W 125°53'1 0.5 13.8
2015-May-19 02:00N 43°09' W 125°53'0 0.3 13.9
2015-May-19 01:00N 43°09' W 125°53'0 0.4 14.0
2015-May-19 00:00N 43°10' W 125°53'0 0.1 14.1
2015-May-18 22:00N 43°09' W 125°53'1 0.6 14.0
2015-May-18 20:00N 43°10' W 125°52'1 0.5 13.8
2015-May-18 19:00N 43°10' W 125°52'1 0.5 13.7
2015-May-18 17:00N 43°11' W 125°51'0 0.0 13.6
2015-May-18 15:00N 43°11' W 125°51'1 1.1 13.6
2015-May-18 14:00N 43°12' W 125°51'1 0.3 13.6
2015-May-18 12:00N 43°12' W 125°52'0 0.5 13.6
2015-May-18 11:00N 43°13' W 125°52'1 0.5 13.6
2015-May-18 10:00N 43°12' W 125°52'0 0.0 13.6
2015-May-18 06:00N 43°12' W 125°52'0 0.1 13.6
2015-May-18 05:00N 43°12' W 125°52'1 0.9 13.6
2015-May-18 04:00N 43°12' W 125°51'1 0.5 13.6
2015-May-18 02:00N 43°13' W 125°51'1 0.7 13.6
2015-May-18 01:00N 43°13' W 125°51'1 0.6 13.6
2015-May-18 00:00N 43°13' W 125°51'2 2.2 13.6
2015-May-17 23:00N 43°15' W 125°48'1 0.5 13.6
2015-May-17 22:00N 43°14' W 125°49'0 0.0 13.5
2015-May-17 21:00N 43°14' W 125°49'1 1.0 13.5
2015-May-17 20:00N 43°15' W 125°50'0 0.2 13.5
2015-May-17 19:00N 43°15' W 125°51'0 0.2 13.5
2015-May-17 17:00N 43°15' W 125°51'0 0.2 13.5
2015-May-17 15:00N 43°15' W 125°51'1 0.5 13.5
2015-May-17 13:00N 43°16' W 125°51'0 0.2 13.5
2015-May-17 12:00N 43°16' W 125°52'1 0.1 13.5
2015-May-17 04:00N 43°16' W 125°51'0 0.2 13.6
2015-May-17 03:00N 43°16' W 125°51'1 0.3 13.6
2015-May-17 01:00N 43°17' W 125°51'1 0.6 13.6
2015-May-17 00:00N 43°17' W 125°51'0 0.4 13.6
2015-May-16 23:00N 43°17' W 125°51'1 0.3 13.6
2015-May-16 18:00N 43°17' W 125°53'0 0.2 13.6
2015-May-16 16:00N 43°17' W 125°52'0 0.3 13.5
2015-May-16 15:00N 43°17' W 125°52'1 0.2 13.5
2015-May-16 06:00N 43°18' W 125°53'1 0.5 13.7
2015-May-16 04:00N 43°18' W 125°54'1 0.1 13.7
2015-May-15 16:00N 43°18' W 125°54'0 0.1 13.7
2015-May-15 15:00N 43°18' W 125°54'1 0.4 13.6
2015-May-15 13:00N 43°19' W 125°54'1 0.2 13.6
2015-May-15 06:00N 43°19' W 125°56'1 0.8 13.7
2015-May-15 05:00N 43°18' W 125°56'0 0.2 13.7
2015-May-15 04:00N 43°18' W 125°56'1 0.1 13.7
2015-May-14 18:00N 43°19' W 125°56'1 0.3 13.7
2015-May-14 15:00N 43°19' W 125°57'0 0.2 13.6
2015-May-14 13:00N 43°19' W 125°57'1 1.4 13.6
2015-May-14 12:00N 43°19' W 125°59'1 1.0 13.6
2015-May-14 11:00N 43°18' W 125°58'0 0.0 13.6
2015-May-14 09:00N 43°18' W 125°58'0 0.1 13.6
2015-May-14 05:00N 43°18' W 125°58'0 0.1 13.7
2015-May-14 04:00N 43°18' W 125°58'1 0.5 13.7
2015-May-14 03:00N 43°18' W 125°58'0 0.0 13.7
2015-May-14 02:00N 43°18' W 125°58'1 0.6 13.9
2015-May-14 01:00N 43°18' W 125°58'1 0.6 14.0
2015-May-13 23:00N 43°18' W 125°59'0 0.0 14.0
2015-May-13 22:00N 43°18' W 125°59'0 0.4 14.0
2015-May-13 21:00N 43°18' W 125°60'1 0.4 14.2
2015-May-13 19:00N 43°18' W 126°01'2 0.4 13.7
2015-May-13 15:00N 43°16' W 126°02'0 0.3 13.4
2015-May-13 14:00N 43°16' W 126°02'1 0.6 13.4
2015-May-13 13:00N 43°16' W 126°02'0 0.2 13.4
2015-May-13 11:00N 43°16' W 126°02'0 0.0 13.4
2015-May-13 10:00N 43°16' W 126°02'1 0.2 13.4
2015-May-13 06:00N 43°17' W 126°03'0 0.0 13.5
2015-May-13 05:00N 43°17' W 126°03'2 0.5 13.5
2015-May-13 02:00N 43°16' W 126°05'1 1.1 13.5
2015-May-13 01:00N 43°15' W 126°06'0 0.1 13.5
2015-May-13 00:00N 43°15' W 126°06'0 0.4 13.5
2015-May-12 23:00N 43°15' W 126°06'1 0.9 13.5
2015-May-12 22:00N 43°14' W 126°06'0 0.0 13.5
2015-May-12 21:00N 43°14' W 126°06'0 0.3 13.5
2015-May-12 20:00N 43°14' W 126°06'1 0.2 13.5
2015-May-12 17:00N 43°14' W 126°05'1 0.2 13.5
2015-May-12 14:00N 43°14' W 126°06'1 0.6 13.5
2015-May-12 13:00N 43°14' W 126°07'   13.5
Track history (hours):
 
Tides and Currents Weather Stations Pressure Air Temp Water Temp Dewpoint Dewpoint Depression Visibility Wind Speed Wind Dir Waves Ship Positions

Drifting buoy 46562

Last reported at 2015-May-22 09:00 UTC. Time now 2015-May-22 11:35 UTC.
Position N 42°56' W 126°09'.

Water temperature 13.8 ° C

Date/timePositionNaut miles runAvg speedWind from/ knotsBaromVisibWave heightAir tempDewpointWater temp
2015-May-22 09:00N 42°56' W 126°09'1 0.3 13.8
2015-May-22 05:00N 42°57' W 126°08'0 0.3 13.8
2015-May-22 04:00N 42°57' W 126°08'1 1.2 13.9
2015-May-22 03:00N 42°58' W 126°07'0 0.0 13.9
2015-May-22 02:00N 42°58' W 126°07'0 0.2 13.9
2015-May-22 00:00N 42°58' W 126°08'2 0.4 13.9
2015-May-21 18:00N 42°59' W 126°05'1 0.2 13.9
2015-May-21 14:00N 43°00' W 126°05'1 0.2 13.9
2015-May-21 06:00N 43°00' W 126°03'1 0.4 14.0
2015-May-21 04:00N 43°01' W 126°02'1 0.3 14.0
2015-May-21 02:00N 43°01' W 126°02'1 0.3 14.0
2015-May-21 00:00N 43°02' W 126°02'0 0.2 14.0
2015-May-20 23:00N 43°02' W 126°02'1 0.4 14.1
2015-May-20 20:00N 43°01' W 126°00'2 0.4 14.1
2015-May-20 16:00N 43°03' W 125°59'0 0.2 14.1
2015-May-20 14:00N 43°03' W 125°59'1 0.5 14.1
2015-May-20 13:00N 43°03' W 125°60'0 0.0 14.1
2015-May-20 10:00N 43°03' W 125°59'2 0.3 14.1
2015-May-20 04:00N 43°05' W 125°57'1 0.7 14.1
2015-May-20 03:00N 43°05' W 125°57'1 0.5 14.2
2015-May-20 02:00N 43°05' W 125°57'2 0.2 14.2
2015-May-19 18:00N 43°06' W 125°55'2 0.4 13.8
2015-May-19 13:00N 43°08' W 125°55'0 0.2 13.8
2015-May-19 11:00N 43°08' W 125°55'2 1.7 13.8
2015-May-19 10:00N 43°08' W 125°53'2 1.7 13.8
2015-May-19 09:00N 43°08' W 125°55'2 0.5 13.8
2015-May-19 06:00N 43°08' W 125°53'1 0.3 13.8
2015-May-19 04:00N 43°09' W 125°52'1 0.6 13.8
2015-May-19 03:00N 43°09' W 125°53'1 0.5 13.8
2015-May-19 02:00N 43°09' W 125°53'0 0.3 13.9
2015-May-19 01:00N 43°09' W 125°53'0 0.4 14.0
2015-May-19 00:00N 43°10' W 125°53'0 0.1 14.1
2015-May-18 22:00N 43°09' W 125°53'1 0.6 14.0
2015-May-18 20:00N 43°10' W 125°52'1 0.5 13.8
2015-May-18 19:00N 43°10' W 125°52'1 0.5 13.7
2015-May-18 17:00N 43°11' W 125°51'0 0.0 13.6
2015-May-18 15:00N 43°11' W 125°51'1 1.1 13.6
2015-May-18 14:00N 43°12' W 125°51'1 0.3 13.6
2015-May-18 12:00N 43°12' W 125°52'0 0.5 13.6
2015-May-18 11:00N 43°13' W 125°52'1 0.5 13.6
2015-May-18 10:00N 43°12' W 125°52'0 0.0 13.6
2015-May-18 06:00N 43°12' W 125°52'0 0.1 13.6
2015-May-18 05:00N 43°12' W 125°52'1 0.9 13.6
2015-May-18 04:00N 43°12' W 125°51'1 0.5 13.6
2015-May-18 02:00N 43°13' W 125°51'1 0.7 13.6
2015-May-18 01:00N 43°13' W 125°51'1 0.6 13.6
2015-May-18 00:00N 43°13' W 125°51'2 2.2 13.6
2015-May-17 23:00N 43°15' W 125°48'1 0.5 13.6
2015-May-17 22:00N 43°14' W 125°49'0 0.0 13.5
2015-May-17 21:00N 43°14' W 125°49'1 1.0 13.5
2015-May-17 20:00N 43°15' W 125°50'0 0.2 13.5
2015-May-17 19:00N 43°15' W 125°51'0 0.2 13.5
2015-May-17 17:00N 43°15' W 125°51'0 0.2 13.5
2015-May-17 15:00N 43°15' W 125°51'1 0.5 13.5
2015-May-17 13:00N 43°16' W 125°51'0 0.2 13.5
2015-May-17 12:00N 43°16' W 125°52'1 0.1 13.5
2015-May-17 04:00N 43°16' W 125°51'0 0.2 13.6
2015-May-17 03:00N 43°16' W 125°51'1 0.3 13.6
2015-May-17 01:00N 43°17' W 125°51'1 0.6 13.6
2015-May-17 00:00N 43°17' W 125°51'0 0.4 13.6
2015-May-16 23:00N 43°17' W 125°51'1 0.3 13.6
2015-May-16 18:00N 43°17' W 125°53'0 0.2 13.6
2015-May-16 16:00N 43°17' W 125°52'0 0.3 13.5
2015-May-16 15:00N 43°17' W 125°52'1 0.2 13.5
2015-May-16 06:00N 43°18' W 125°53'1 0.5 13.7
2015-May-16 04:00N 43°18' W 125°54'1 0.1 13.7
2015-May-15 16:00N 43°18' W 125°54'0 0.1 13.7
2015-May-15 15:00N 43°18' W 125°54'1 0.4 13.6
2015-May-15 13:00N 43°19' W 125°54'1 0.2 13.6
2015-May-15 06:00N 43°19' W 125°56'1 0.8 13.7
2015-May-15 05:00N 43°18' W 125°56'0 0.2 13.7
2015-May-15 04:00N 43°18' W 125°56'1 0.1 13.7
2015-May-14 18:00N 43°19' W 125°56'1 0.3 13.7
2015-May-14 15:00N 43°19' W 125°57'0 0.2 13.6
2015-May-14 13:00N 43°19' W 125°57'1 1.4 13.6
2015-May-14 12:00N 43°19' W 125°59'1 1.0 13.6
2015-May-14 11:00N 43°18' W 125°58'0 0.0 13.6
2015-May-14 09:00N 43°18' W 125°58'0 0.1 13.6
2015-May-14 05:00N 43°18' W 125°58'0 0.1 13.7
2015-May-14 04:00N 43°18' W 125°58'1 0.5 13.7
2015-May-14 03:00N 43°18' W 125°58'0 0.0 13.7
2015-May-14 02:00N 43°18' W 125°58'1 0.6 13.9
2015-May-14 01:00N 43°18' W 125°58'1 0.6 14.0
2015-May-13 23:00N 43°18' W 125°59'0 0.0 14.0
2015-May-13 22:00N 43°18' W 125°59'0 0.4 14.0
2015-May-13 21:00N 43°18' W 125°60'1 0.4 14.2
2015-May-13 19:00N 43°18' W 126°01'2 0.4 13.7
2015-May-13 15:00N 43°16' W 126°02'0 0.3 13.4
2015-May-13 14:00N 43°16' W 126°02'1 0.6 13.4
2015-May-13 13:00N 43°16' W 126°02'0 0.2 13.4
2015-May-13 11:00N 43°16' W 126°02'0 0.0 13.4
2015-May-13 10:00N 43°16' W 126°02'1 0.2 13.4
2015-May-13 06:00N 43°17' W 126°03'0 0.0 13.5
2015-May-13 05:00N 43°17' W 126°03'2 0.5 13.5
2015-May-13 02:00N 43°16' W 126°05'1 1.1 13.5
2015-May-13 01:00N 43°15' W 126°06'0 0.1 13.5
2015-May-13 00:00N 43°15' W 126°06'0 0.4 13.5
2015-May-12 23:00N 43°15' W 126°06'1 0.9 13.5
2015-May-12 22:00N 43°14' W 126°06'0 0.0 13.5
2015-May-12 21:00N 43°14' W 126°06'0 0.3 13.5
2015-May-12 20:00N 43°14' W 126°06'1 0.2 13.5
2015-May-12 17:00N 43°14' W 126°05'1 0.2 13.5
2015-May-12 14:00N 43°14' W 126°06'1 0.6 13.5
2015-May-12 13:00N 43°14' W 126°07'   13.5

Dump ship's entire track history